With the market sense app you can inspect and search through your Inventory. It's an easy way to make space, organize yourself and find out if you have any useful items you forgot about. Also don't forget to check out how to get Sales Notifications sent to your discord account by clicking here.

Hallowed Chestnut Armillae

Server: Exodus

DataCenter Prices
Last Updated: 7/7/19 9:30:44 PM
Search Category: Bracelets, Item Category: Bracelets
Sell price to vendor: 211

Garland Link

15 23,850 49,999 23,850 1,011 1,011 1,011 1

Level 58 Carpenter Recipe for Hallowed Chestnut Armillae

Wind Crystal 5 475 2,375
Hallowed Chestnut Lumber 2 399 798
Varnish 1 4,200 4,200
Ice Crystal 5 45 225

Total Price to Craft 1 : 7,598

Profit/Loss Normal = -6,587

Profit/Loss HQ = 29,402

Current Prices

23,850 1 23,850
24,000 1 24,000
25,000 1 25,000
28,950 1 28,950
29,000 1 29,000
30,000 1 30,000
30,000 1 30,000
HQ 49,999 1 49,999
HQ 50,000 1 50,000
HQ 50,000 1 50,000
HQ 50,000 1 50,000
HQ 50,000 1 50,000
HQ 50,000 1 50,000
HQ 50,000 1 50,000
HQ 50,000 1 50,000

Price History

25,000 1 25,000 Lovack Silverblade 02/26/2018 17:00:02 131641380020000000
28,000 1 28,000 Lovack Silverblade 02/26/2018 17:00:04 131641380040000000
28,777 1 28,777 Lovack Silverblade 02/26/2018 17:02:13 131641381330000000
25,000 1 25,000 Binabik Swarhimalsyn 02/28/2018 15:09:44 131643041840000000
28,000 1 28,000 Binabik Swarhimalsyn 02/28/2018 15:09:45 131643041850000000
HQ 25,000 1 25,000 Moha Deeb 03/01/2018 09:45:18 131643711180000000
HQ 27,233 1 27,233 Ganzorig Beefwhistle 03/01/2018 13:22:14 131643841340000000
HQ 69,000 1 69,000 Ganzorig Beefwhistle 03/01/2018 13:22:16 131643841360000000
HQ 97,000 1 97,000 Ganzorig Beefwhistle 03/01/2018 13:22:19 131643841390000000
HQ 19,975 1 19,975 Chrono Mars 03/03/2018 06:16:18 131645313780000000
HQ 20,000 1 20,000 Chrono Mars 03/03/2018 06:16:22 131645313820000000
HQ 24,000 1 24,000 Chrono Mars 03/03/2018 06:16:27 131645313870000000
20,000 1 20,000 Strike Tiran 03/03/2018 13:37:00 131645578200000000
24,000 1 24,000 Strike Tiran 03/03/2018 13:37:04 131645578240000000
25,000 1 25,000 Strike Tiran 03/03/2018 13:37:07 131645578270000000
HQ 68,000 1 68,000 Strike Tiran 03/03/2018 13:37:14 131645578340000000
HQ 70,000 1 70,000 Strike Tiran 03/03/2018 13:37:24 131645578440000000
28,899 1 28,899 Caramel Macchiato 03/03/2018 21:49:03 131645873430000000
29,750 1 29,750 Caramel Macchiato 03/03/2018 21:49:05 131645873450000000
34,990 1 34,990 Kron Ix 03/04/2018 04:59:21 131646131610000000
HQ 98,000 1 98,000 Raz Entreri 03/04/2018 16:45:24 131646555240000000
HQ 99,000 1 99,000 Souji Hanamura 03/04/2018 22:22:43 131646757630000000
35,000 1 35,000 Telanda Lzz 03/06/2018 02:27:59 131647768790000000
HQ 115,000 1 115,000 Arturius Valerian 03/08/2018 20:09:59 131650133990000000
24,000 1 24,000 Algathas Celestia 03/10/2018 21:00:28 131651892280000000
24,100 1 24,100 Algathas Celestia 03/10/2018 21:00:29 131651892290000000
25,150 1 25,150 Algathas Celestia 03/10/2018 21:00:31 131651892310000000
25,222 1 25,222 Urha Blanc 03/11/2018 05:58:17 131652214970000000
30,000 1 30,000 Amaya Strife 03/12/2018 02:57:44 131652970640000000
HQ 16,000 1 16,000 Bunny Blue 03/16/2018 20:57:47 131657074670000000
HQ 19,233 1 19,233 Sigil Dark 03/16/2018 22:07:32 131657116520000000
HQ 20,000 1 20,000 Aerelia Tsaang 03/17/2018 00:47:25 131657212450000000
HQ 25,000 1 25,000 Korr Dewfork 03/17/2018 01:51:28 131657250880000000
HQ 36,000 1 36,000 Korr Dewfork 03/17/2018 01:51:36 131657250960000000
HQ 50,000 1 50,000 Templar Jeezuz 03/17/2018 18:42:41 131657857610000000
15,000 1 15,000 Livart Moonseeker 04/13/2018 17:53:50 131681156300000000
HQ 30,000 1 30,000 Allexis Foo 04/15/2018 13:15:00 131682717000000000
22,000 1 22,000 Foreign Object 04/15/2018 19:42:13 131682949330000000
HQ 30,000 1 30,000 Lysander Vasu 04/17/2018 02:41:58 131684065180000000
11,500 1 11,500 Valeria Ward 04/17/2018 21:15:31 131684733310000000
HQ 20,000 1 20,000 Tyson Seraphim 04/19/2018 04:50:20 131685870200000000
HQ 34,500 1 34,500 Nie Yan 04/21/2018 02:28:27 131687513070000000
HQ 35,000 1 35,000 Nie Yan 04/21/2018 02:28:31 131687513110000000
20,000 1 20,000 Nie Yan 04/21/2018 02:28:37 131687513170000000
20,500 1 20,500 Nie Yan 04/21/2018 02:28:40 131687513200000000
21,000 1 21,000 Nie Yan 04/21/2018 02:28:42 131687513220000000
22,210 1 22,210 Nie Yan 04/21/2018 02:28:48 131687513280000000
22,211 1 22,211 Nie Yan 04/21/2018 02:28:51 131687513310000000
30,000 1 30,000 Aprilius Mcweeb 04/23/2018 04:22:11 131689309310000000
24,990 1 24,990 Co Tcotkya 04/24/2018 21:59:30 131690807700000000
29,000 1 29,000 Co Tcotkya 04/24/2018 21:59:33 131690807730000000
20,000 1 20,000 Lou Jones 04/25/2018 02:39:52 131690975920000000
HQ 50,000 1 50,000 Vass Si 04/27/2018 16:27:45 131693200650000000
HQ 20,000 1 20,000 Basria Greywolf 04/29/2018 11:20:03 131694744030000000
HQ 60,000 1 60,000 Thoth Fenrir 04/30/2018 14:07:39 131695708590000000
10,211 1 10,211 Aurelie Renard 09/10/2018 22:06:55 131810908150000000
14,000 1 14,000 Caedens Aquae 09/13/2018 20:20:26 131813436260000000
HQ 99,000 1 99,000 Palantir Riverne 09/14/2018 18:42:18 131814241380000000
HQ 100,000 1 100,000 Palantir Riverne 09/14/2018 18:42:30 131814241500000000
HQ 100,000 1 100,000 Palantir Riverne 09/14/2018 18:42:33 131814241530000000
5,000 1 5,000 Allura Promisekeeper 09/22/2018 01:01:38 131820516980000000
10,000 1 10,000 Allura Promisekeeper 09/22/2018 01:01:41 131820517010000000
9,700 1 9,700 Sqrl Master 09/23/2018 02:20:22 131821428220000000
5,211 1 5,211 Kaito Mikazuki 09/24/2018 01:57:12 131822278320000000
8,990 1 8,990 V'ledha Maqho 09/25/2018 06:43:15 131823313950000000
HQ 38,556 1 38,556 Ice Cosmas 09/25/2018 12:01:37 131823504970000000
HQ 39,999 1 39,999 Ice Cosmas 09/25/2018 12:01:38 131823504980000000
8,990 1 8,990 Ervean Yaeger 09/25/2018 22:12:23 131823871430000000
8,991 1 8,991 Ervean Yaeger 09/25/2018 22:12:25 131823871450000000
9,000 1 9,000 Ervean Yaeger 09/25/2018 22:12:26 131823871460000000
HQ 29,750 1 29,750 Drax Grimm 09/26/2018 19:07:39 131824624590000000
HQ 30,000 1 30,000 Two Styx 09/26/2018 20:40:46 131824680460000000
HQ 39,000 1 39,000 Two Styx 09/26/2018 20:40:50 131824680500000000
500 1 500 Abe Bull 09/28/2018 14:27:26 131826184460000000
9,799 1 9,799 Z'chai Tia 09/29/2018 07:01:45 131826781050000000
HQ 10,000 1 10,000 Orion Helstad 10/03/2018 04:05:24 131830131240000000
10,211 1 10,211 Moros Olethro 10/03/2018 13:24:26 131830466660000000
10,211 1 10,211 Alden Liunethius 10/03/2018 18:57:36 131830666560000000
12,000 1 12,000 Friedrich Crowe 10/03/2018 20:22:46 131830717660000000
12,000 1 12,000 Friedrich Crowe 10/03/2018 20:22:50 131830717700000000
12,000 1 12,000 Friedrich Crowe 10/03/2018 20:22:52 131830717720000000
11,900 1 11,900 Omlette Asura 10/06/2018 09:39:15 131832923550000000
12,000 1 12,000 Unasae Dakwhil 10/06/2018 21:55:34 131833365340000000
13,999 1 13,999 Unasae Dakwhil 10/06/2018 21:59:25 131833367650000000
16,500 1 16,500 Unasae Dakwhil 10/06/2018 21:59:27 131833367670000000
16,500 1 16,500 Unasae Dakwhil 10/06/2018 21:59:29 131833367690000000
HQ 20,000 1 20,000 Morganna Ghast 10/08/2018 22:57:46 131835130660000000
15,000 1 15,000 Sa'eros Caragdur 10/10/2018 06:51:09 131836278690000000
HQ 24,500 1 24,500 Bree Zin 10/10/2018 16:03:41 131836610210000000
HQ 25,000 1 25,000 Bree Zin 10/10/2018 16:03:53 131836610330000000
HQ 35,000 1 35,000 Bree Zin 10/10/2018 16:03:55 131836610350000000
HQ 39,999 1 39,999 Timothy Henderson 10/12/2018 01:44:06 131837822460000000
HQ 40,000 1 40,000 Timothy Henderson 10/12/2018 01:44:09 131837822490000000
HQ 40,000 1 40,000 Timothy Henderson 10/12/2018 01:44:12 131837822520000000
HQ 50,000 1 50,000 Timothy Henderson 10/12/2018 01:44:17 131837822570000000
25,000 1 25,000 Naoh Hanekawa 10/14/2018 03:44:26 131839622660000000
HQ 20,000 1 20,000 Dorrai Stark 01/12/2019 09:11:04 131917578640000000
18,211 1 18,211 Kupo Marsh 01/13/2019 06:17:15 131918338350000000
18,211 1 18,211 Silver Harmony 01/13/2019 20:57:56 131918866760000000
HQ 60,233 1 60,233 Carra Ravenclaw 01/14/2019 13:11:09 131919450690000000
15,000 1 15,000 Chiyo Saito 01/16/2019 16:24:13 131921294530000000
HQ 38,233 1 38,233 Leywa Venrun 01/18/2019 17:11:10 131923050700000000
HQ 40,000 1 40,000 Leywa Venrun 01/18/2019 17:11:14 131923050740000000
HQ 48,000 1 48,000 Leywa Venrun 01/18/2019 17:11:28 131923050880000000
16,000 1 16,000 Lethal Spirit 01/18/2019 17:58:38 131923079180000000
HQ 16,501 1 16,501 Furball Fluffsalot 01/19/2019 13:03:09 131923765890000000
16,200 1 16,200 Kansada Aldebaran 01/20/2019 02:36:47 131924254070000000
16,211 1 16,211 Kiramai Sailor 01/20/2019 04:38:58 131924327380000000
HQ 16,000 1 16,000 Tyrant Ganondorf 01/24/2019 16:39:26 131928215660000000
666 1 666 Silver Hellz 01/25/2019 00:25:38 131928495380000000
15,000 1 15,000 Taiga Aysaka 01/26/2019 00:55:36 131929377360000000
HQ 15,000 1 15,000 Fenrir Elatha 01/26/2019 23:54:11 131930204510000000
HQ 50,000 1 50,000 Chulainn Stella 01/27/2019 17:41:37 131930844970000000
15,210 1 15,210 Sir Quaver 01/28/2019 18:04:14 131931722540000000
15,211 1 15,211 Loliet Elmaheal 01/29/2019 04:16:08 131932089680000000
16,000 1 16,000 Loliet Elmaheal 01/29/2019 04:16:10 131932089700000000
HQ 50,233 1 50,233 Seralath Azurna 02/02/2019 01:24:25 131935442650000000
HQ 50,000 1 50,000 Seralath Azurna 02/02/2019 01:26:41 131935444010000000
HQ 50,000 1 50,000 Seralath Azurna 02/02/2019 01:26:43 131935444030000000
HQ 25,000 1 25,000 Mango Starburst 02/02/2019 22:20:36 131936196360000000
HQ 25,000 1 25,000 Mango Starburst 02/02/2019 22:20:41 131936196410000000
HQ 30,000 1 30,000 Mango Starburst 02/02/2019 22:21:30 131936196900000000
HQ 50,000 1 50,000 Mango Starburst 02/02/2019 22:24:45 131936198850000000
7,777 1 7,777 Enter Machina 02/05/2019 01:04:16 131938022560000000
9,998 1 9,998 Enter Machina 02/05/2019 01:04:19 131938022590000000
9,999 1 9,999 Enter Machina 02/05/2019 01:04:21 131938022610000000
10,000 1 10,000 Enter Machina 02/05/2019 01:04:25 131938022650000000
10,211 1 10,211 Enter Machina 02/05/2019 01:04:29 131938022690000000
HQ 22,500 1 22,500 Enter Machina 02/05/2019 01:04:31 131938022710000000
HQ 23,000 1 23,000 Enter Machina 02/05/2019 01:04:34 131938022740000000
16,000 1 16,000 Erin Mckat 02/06/2019 00:48:18 131938876980000000
HQ 7,800 1 7,800 Dia Highwind 02/07/2019 23:45:34 131940567340000000
HQ 8,000 1 8,000 Garmr Imakoo 02/08/2019 00:05:44 131940579440000000
HQ 9,400 1 9,400 Mari Elise 02/09/2019 17:10:35 131942058350000000
HQ 10,000 1 10,000 Georgia Mae 02/10/2019 04:46:09 131942475690000000
HQ 16,000 1 16,000 Georgia Mae 02/10/2019 04:46:13 131942475730000000
5,000 1 5,000 Yerik Kova 02/13/2019 19:29:29 131945597690000000
8,000 1 8,000 Yerik Kova 02/13/2019 19:29:32 131945597720000000
8,000 1 8,000 Yerik Kova 02/13/2019 19:29:34 131945597740000000
8,888 1 8,888 Yerik Kova 02/13/2019 19:30:03 131945598030000000
9,499 1 9,499 Yerik Kova 02/13/2019 19:30:08 131945598080000000
9,800 1 9,800 Yerik Kova 02/13/2019 19:30:11 131945598110000000
HQ 7,896 1 7,896 Yerik Kova 02/13/2019 19:35:28 131945601280000000
HQ 8,000 1 8,000 Yerik Kova 02/13/2019 19:35:30 131945601300000000
20,111 1 20,111 Just Heal 02/14/2019 07:14:48 131946020880000000
HQ 7,000 1 7,000 Megumi Kikuchi 02/16/2019 15:51:56 131948059160000000
HQ 7,000 1 7,000 Megumi Kikuchi 02/16/2019 15:51:59 131948059190000000
HQ 9,000 1 9,000 Megumi Kikuchi 02/16/2019 15:52:03 131948059230000000
HQ 40,000 1 40,000 Xaien X'eraphim 02/17/2019 01:13:53 131948396330000000
9,999 1 9,999 Wild Heart 02/18/2019 01:54:12 131949284520000000
10,211 1 10,211 Wild Heart 02/18/2019 01:54:20 131949284600000000
10,850 1 10,850 Lulure Lure 02/18/2019 13:02:04 131949685240000000
HQ 50,000 1 50,000 Lulure Lure 02/18/2019 16:35:17 131949813170000000
HQ 50,000 1 50,000 Lulure Lure 02/18/2019 16:35:20 131949813200000000
25,000 1 25,000 Don Goat 02/18/2019 22:01:49 131950009090000000
24,500 1 24,500 Don Goat 02/18/2019 22:01:52 131950009120000000
11,000 1 11,000 Don Goat 02/18/2019 22:01:55 131950009150000000
HQ 42,000 1 42,000 Cyrus Evernight 03/22/2019 03:14:23 131976980630000000
HQ 42,000 1 42,000 Peen Bean 03/22/2019 03:50:04 131977002040000000
HQ 42,000 1 42,000 Peen Bean 03/22/2019 03:50:06 131977002060000000
HQ 42,000 1 42,000 Peen Bean 03/22/2019 03:50:08 131977002080000000
10,000 1 10,000 Jinxie Nelliel 03/22/2019 12:58:52 131977331320000000
9,000 1 9,000 Ladislasz Fletchersd 03/23/2019 04:06:21 131977875810000000
HQ 41,995 1 41,995 A'vett Morningstar 03/24/2019 04:38:55 131978759350000000
9,999 1 9,999 A'vett Morningstar 03/24/2019 06:07:20 131978812400000000
10,000 1 10,000 A'vett Morningstar 03/24/2019 06:07:22 131978812420000000
HQ 41,000 1 41,000 Xinith Yurixian 03/24/2019 16:02:27 131979169470000000
HQ 41,000 1 41,000 Xinith Yurixian 03/24/2019 16:02:29 131979169490000000
HQ 42,000 1 42,000 Xinith Yurixian 03/24/2019 16:02:31 131979169510000000
HQ 42,000 1 42,000 Xinith Yurixian 03/24/2019 16:02:34 131979169540000000
HQ 43,000 1 43,000 Xinith Yurixian 03/24/2019 16:02:35 131979169550000000
9,999 1 9,999 Garmr Imakoo 03/24/2019 21:09:26 131979353660000000
10,000 1 10,000 Garmr Imakoo 03/24/2019 21:09:28 131979353680000000
HQ 37,999 1 37,999 Ziphie Dakwhil 03/25/2019 13:33:55 131979944350000000
HQ 29,999 1 29,999 Kayt Devilspike 03/26/2019 23:50:02 131981178020000000
HQ 29,999 1 29,999 Eksu Plosion 03/27/2019 05:32:51 131981383710000000
HQ 30,000 1 30,000 Eksu Plosion 03/27/2019 05:32:54 131981383740000000
HQ 33,333 1 33,333 Eksu Plosion 03/27/2019 05:32:56 131981383760000000
10,000 1 10,000 Simon Lagann 03/27/2019 10:12:04 131981551240000000
HQ 43,000 1 43,000 Simon Lagann 03/27/2019 10:12:06 131981551260000000
20,199 1 20,199 Simon Lagann 03/27/2019 10:12:08 131981551280000000
20,200 1 20,200 Simon Lagann 03/27/2019 10:12:09 131981551290000000
HQ 47,000 1 47,000 Mariella Joplin 03/29/2019 20:23:46 131983646260000000
8,000 1 8,000 Ziz Tournefoux 03/30/2019 14:36:58 131984302180000000
7,690 1 7,690 Zeiffeux Glamort 03/31/2019 01:01:00 131984676600000000
7,700 1 7,700 Zeiffeux Glamort 03/31/2019 01:01:03 131984676630000000
HQ 28,999 1 28,999 Ascaris Lumbricoides 03/31/2019 20:55:03 131985393030000000
5,000 1 5,000 Milestailsprowe Two 04/01/2019 01:56:54 131985574140000000
3,911 1 3,911 Get Poked 04/02/2019 15:59:11 131986943510000000
3,999 1 3,999 Lucky Bee 04/04/2019 05:08:48 131988281280000000
HQ 23,000 1 23,000 Vivian Darkbloom 04/04/2019 07:00:30 131988348300000000
4,000 1 4,000 Fugu Barr 04/04/2019 23:29:50 131988941900000000
HQ 22,999 1 22,999 Citrus-free Marmalade 04/06/2019 02:51:49 131989927090000000
HQ 22,999 1 22,999 Citrus-free Marmalade 04/06/2019 02:51:51 131989927110000000
HQ 22,999 1 22,999 Citrus-free Marmalade 04/06/2019 02:51:54 131989927140000000
HQ 22,999 1 22,999 Citrus-free Marmalade 04/06/2019 02:55:23 131989929230000000
HQ 27,000 1 27,000 Citrus-free Marmalade 04/06/2019 02:55:27 131989929270000000
HQ 30,233 1 30,233 Citrus-free Marmalade 04/06/2019 02:55:29 131989929290000000
HQ 28,000 1 28,000 Storm Witch 04/09/2019 12:05:31 131992851310000000
3,100 1 3,100 Fufufakku Goddess 04/10/2019 04:47:16 131993452360000000
4,000 1 4,000 Valencia Heart 04/11/2019 00:25:17 131994159170000000
HQ 28,333 1 28,333 Moldy Cheese 04/11/2019 04:04:12 131994290520000000
HQ 4,000 1 4,000 Solk Sapphire 04/13/2019 04:54:36 131996048760000000
4,400 1 4,400 Kelsier Ofhathsin 04/13/2019 17:25:04 131996499040000000
3,999 1 3,999 Oceanelle D'oraguille 04/13/2019 19:07:20 131996560400000000
5,000 1 5,000 Seitzer Gabiani 04/14/2019 22:22:51 131997541710000000
HQ 27,500 1 27,500 Random Striker 04/16/2019 06:22:52 131998693720000000
5,000 1 5,000 Unholy Asprin 04/17/2019 04:23:09 131999485890000000
HQ 27,998 1 27,998 Nalta Meridius 04/17/2019 15:49:07 131999897470000000
HQ 27,999 1 27,999 Nalta Meridius 04/17/2019 15:49:08 131999897480000000
HQ 30,000 1 30,000 Nalta Meridius 04/17/2019 15:49:11 131999897510000000
HQ 30,000 1 30,000 Nalta Meridius 04/17/2019 15:49:13 131999897530000000
5,000 1 5,000 Marie Kusumi 04/18/2019 12:57:19 132000658390000000
5,000 1 5,000 Marie Kusumi 04/18/2019 12:57:20 132000658400000000
5,000 1 5,000 Marie Kusumi 04/18/2019 12:57:21 132000658410000000
4,400 1 4,400 Sophiya Frostsong 04/19/2019 04:22:17 132001213370000000
4,401 1 4,401 Sophiya Frostsong 04/19/2019 04:22:19 132001213390000000
4,800 1 4,800 Sophiya Frostsong 04/19/2019 04:22:21 132001213410000000
4,800 1 4,800 Sophiya Frostsong 04/19/2019 04:22:23 132001213430000000
4,896 1 4,896 Sophiya Frostsong 04/19/2019 04:22:25 132001213450000000
5,000 1 5,000 Sophiya Frostsong 04/19/2019 04:22:27 132001213470000000
7,777 1 7,777 Sophiya Frostsong 04/19/2019 04:29:42 132001217820000000
8,000 1 8,000 Sophiya Frostsong 04/19/2019 04:29:44 132001217840000000
8,211 1 8,211 Tobio Okuma 04/19/2019 11:33:47 132001472270000000
HQ 30,000 1 30,000 Luke Warm 04/19/2019 15:45:58 132001623580000000
25,000 1 25,000 Bad Apple 04/21/2019 15:04:26 132003326660000000
25,000 1 25,000 Bad Apple 04/21/2019 15:04:28 132003326680000000
HQ 30,000 1 30,000 Bad Apple 04/21/2019 15:04:30 132003326700000000
HQ 30,000 1 30,000 Starlesss Glasssky 04/22/2019 03:02:13 132003757330000000
10,211 1 10,211 Kazuya Yamato 04/25/2019 12:31:51 132006691110000000
17,500 1 17,500 Seven Sin 04/26/2019 20:48:28 132007853080000000
HQ 29,000 1 29,000 Panda Bear 04/28/2019 04:18:23 132008987030000000
HQ 30,233 1 30,233 Panda Bear 04/28/2019 04:22:30 132008989500000000
HQ 30,233 1 30,233 Panda Bear 04/28/2019 04:22:33 132008989530000000
HQ 30,233 1 30,233 Panda Bear 04/28/2019 04:22:35 132008989550000000
HQ 25,000 1 25,000 Jin Seinochi 04/30/2019 00:37:53 132010582730000000
17,500 1 17,500 Jin Seinochi 04/30/2019 00:40:29 132010584290000000
19,999 1 19,999 Jin Seinochi 04/30/2019 00:40:31 132010584310000000
25,000 1 25,000 Jin Seinochi 04/30/2019 00:40:34 132010584340000000
59,999 1 59,999 Jin Seinochi 04/30/2019 00:46:38 132010587980000000
HQ 50,000 1 50,000 Sillow Cybin 05/02/2019 18:55:13 132012969130000000
HQ 50,233 1 50,233 Caelum Supremum 05/03/2019 17:24:41 132013778810000000
HQ 50,233 1 50,233 Kane Akame 05/04/2019 15:41:15 132014580750000000
HQ 50,233 1 50,233 Kane Akame 05/04/2019 15:41:18 132014580780000000
HQ 50,233 1 50,233 Kane Akame 05/04/2019 15:41:21 132014580810000000
HQ 50,233 1 50,233 Kane Akame 05/04/2019 15:41:24 132014580840000000
HQ 50,233 1 50,233 Kane Akame 05/04/2019 15:41:30 132014580900000000
HQ 50,233 1 50,233 Ravenrose Rainbreeze 05/04/2019 16:45:37 132014619370000000
HQ 50,000 1 50,000 Snuggle Bear 05/05/2019 01:23:52 132014930320000000
20,211 1 20,211 Rena Tevatra 05/05/2019 15:02:49 132015421690000000
HQ 35,000 1 35,000 Wade Paddock 05/06/2019 23:44:10 132016598500000000
HQ 50,000 1 50,000 Vahli Lhixo 05/07/2019 07:31:46 132016879060000000
HQ 10,233 1 10,233 Alma Lovejoy 05/08/2019 01:10:22 132017514220000000
17,011 1 17,011 Shiro Hisakata 05/09/2019 06:26:42 132018568020000000
18,000 1 18,000 Shiro Hisakata 05/09/2019 06:26:45 132018568050000000
HQ 19,999 1 19,999 Narr Green 05/09/2019 15:39:19 132018899590000000
10,000 1 10,000 Icarius Fellwind 05/10/2019 00:14:56 132019208960000000
HQ 11,000 1 11,000 Gohan Neo 05/14/2019 23:59:18 132023519580000000
HQ 11,999 1 11,999 Gohan Neo 05/14/2019 23:59:20 132023519600000000
HQ 20,000 1 20,000 Gohan Neo 05/14/2019 23:59:23 132023519630000000
HQ 25,000 1 25,000 Makoto Aelen 05/15/2019 21:05:35 132024279350000000
7,500 1 7,500 Makoto Aelen 05/15/2019 21:05:42 132024279420000000
8,000 1 8,000 Makoto Aelen 05/15/2019 21:05:43 132024279430000000
8,000 1 8,000 Valerius Anshelm 05/16/2019 16:50:29 132024990290000000
HQ 35,000 1 35,000 Many-faced God 05/17/2019 01:53:30 132025316100000000
HQ 40,000 1 40,000 Many-faced God 05/17/2019 01:53:33 132025316130000000
8,000 1 8,000 Arclight Ghost 05/18/2019 01:03:30 132026150100000000
9,001 1 9,001 Arclight Ghost 05/18/2019 01:03:33 132026150130000000
11,000 1 11,000 Bella Fahey 05/18/2019 20:22:32 132026845520000000
15,000 1 15,000 Arclight Ghost 05/18/2019 23:45:09 132026967090000000
15,000 1 15,000 Arclight Ghost 05/18/2019 23:45:10 132026967100000000
18,999 1 18,999 Arclight Ghost 05/18/2019 23:45:12 132026967120000000
19,999 1 19,999 Fay Blackwell 05/19/2019 18:24:36 132027638760000000
HQ 47,499 1 47,499 Ethereal Seeker 05/20/2019 23:43:27 132028694070000000
HQ 49,999 1 49,999 Ethereal Seeker 05/20/2019 23:43:31 132028694110000000
20,211 1 20,211 Sage Nytaris 05/21/2019 16:45:33 132029307330000000
24,850 1 24,850 Sage Nytaris 05/21/2019 16:45:35 132029307350000000
25,000 1 25,000 Sage Nytaris 05/21/2019 16:45:37 132029307370000000
25,211 1 25,211 Sage Nytaris 05/21/2019 16:45:38 132029307380000000
35,000 1 35,000 Sage Nytaris 05/21/2019 16:45:39 132029307390000000
37,010 1 37,010 Sage Nytaris 05/21/2019 16:45:41 132029307410000000
HQ 49,888 1 49,888 Drazien Char 05/21/2019 22:13:53 132029504330000000
HQ 50,000 1 50,000 Ethereal Seeker 05/22/2019 01:29:25 132029621650000000
HQ 40,000 1 40,000 Sunder Macleod 05/24/2019 23:16:41 132032134010000000
HQ 45,000 1 45,000 Sunder Macleod 05/24/2019 23:16:44 132032134040000000
HQ 49,999 1 49,999 Sunder Macleod 05/24/2019 23:16:47 132032134070000000
HQ 50,000 1 50,000 Sunder Macleod 05/24/2019 23:16:50 132032134100000000
HQ 25,000 1 25,000 Mizore Shirayukii 05/26/2019 20:37:17 132033766370000000
HQ 25,000 1 25,000 Mizore Shirayukii 05/26/2019 20:37:22 132033766420000000
HQ 35,000 1 35,000 Mizore Shirayukii 05/26/2019 20:37:25 132033766450000000
HQ 30,000 1 30,000 Zarcona Kagon 05/27/2019 17:59:34 132034535740000000
15,200 1 15,200 Yonini Yoni 05/27/2019 20:28:44 132034625240000000
HQ 30,000 1 30,000 Kyioria Natrise 05/28/2019 01:46:38 132034815980000000
HQ 27,500 1 27,500 Kaori Frey 05/28/2019 20:35:34 132035493340000000
HQ 30,000 1 30,000 Kaori Frey 05/28/2019 20:35:37 132035493370000000
HQ 50,000 1 50,000 Kaori Frey 05/28/2019 20:35:41 132035493410000000
11,211 1 11,211 Meleindomien Ravaniel 05/29/2019 20:53:59 132036368390000000
12,000 1 12,000 Johan Joestar 05/29/2019 22:51:08 132036438680000000
HQ 30,233 1 30,233 Gideon Markov 05/30/2019 00:05:32 132036483320000000
12,211 1 12,211 N'avi Fhey 05/30/2019 04:45:20 132036651200000000
11,000 1 11,000 Zeg Prime 05/30/2019 22:20:01 132037284010000000
12,000 1 12,000 Zeg Prime 05/30/2019 22:20:02 132037284020000000
12,000 1 12,000 Zeg Prime 05/30/2019 22:20:04 132037284040000000
12,211 1 12,211 Zeg Prime 05/30/2019 22:20:06 132037284060000000
15,211 1 15,211 Zeg Prime 05/30/2019 22:20:08 132037284080000000
18,000 1 18,000 Zeg Prime 05/30/2019 22:20:09 132037284090000000
23,000 1 23,000 Zeg Prime 05/30/2019 22:24:39 132037286790000000
24,000 1 24,000 Zeg Prime 05/30/2019 22:24:41 132037286810000000
HQ 21,933 1 21,933 Zeg Prime 06/01/2019 03:07:32 132038320520000000
HQ 40,000 1 40,000 Zeg Prime 06/01/2019 03:07:37 132038320570000000
HQ 40,000 1 40,000 Zeg Prime 06/01/2019 03:07:40 132038320600000000
HQ 21,000 1 21,000 B'inah Tia 06/01/2019 19:17:11 132038902310000000
HQ 25,000 1 25,000 Salvador Ramirez 06/03/2019 20:58:52 132040691320000000
HQ 40,000 1 40,000 Salvador Ramirez 06/03/2019 21:07:07 132040696270000000
HQ 39,750 1 39,750 Staelhundr Ansamhasyn 06/04/2019 00:02:59 132040801790000000
HQ 39,750 1 39,750 Staelhundr Ansamhasyn 06/04/2019 00:03:12 132040801920000000
HQ 40,000 1 40,000 Mad Gamer 06/04/2019 05:16:03 132040989630000000
9,000 1 9,000 Sharkbait Oooohahaha 06/04/2019 17:31:25 132041430850000000
14,900 1 14,900 Sharkbait Oooohahaha 06/04/2019 17:32:09 132041431290000000
14,975 1 14,975 Sharkbait Oooohahaha 06/04/2019 17:32:13 132041431330000000
HQ 30,001 1 30,001 Bani Aizou 06/05/2019 10:12:21 132042031410000000
12,001 1 12,001 Yuma Acadium 06/05/2019 23:04:58 132042494980000000
HQ 30,001 1 30,001 Shon Totto 06/08/2019 10:25:50 132044631500000000
14,000 1 14,000 Faded Light 06/08/2019 11:04:24 132044654640000000
15,000 1 15,000 Faded Light 06/08/2019 11:11:28 132044658880000000
20,000 1 20,000 Faded Light 06/08/2019 11:11:30 132044658900000000
20,000 1 20,000 Faded Light 06/08/2019 11:11:33 132044658930000000
22,000 1 22,000 Faded Light 06/08/2019 11:11:36 132044658960000000
HQ 24,000 1 24,000 Irelia Style 06/09/2019 00:51:41 132045151010000000
HQ 24,000 1 24,000 Irelia Style 06/09/2019 00:51:43 132045151030000000
HQ 24,000 1 24,000 Irelia Style 06/09/2019 00:51:45 132045151050000000
HQ 22,000 1 22,000 Jako Jotunori 06/09/2019 02:56:43 132045226030000000
15,000 1 15,000 Sechi Kusakari 06/09/2019 13:26:25 132045603850000000
17,000 1 17,000 Party Glasses 06/12/2019 20:20:47 132048444470000000
HQ 29,999 1 29,999 Zero Emiya 06/13/2019 01:58:08 132048646880000000
HQ 14,950 1 14,950 Yehlso Remmus 06/14/2019 05:51:51 132049651110000000
HQ 14,999 1 14,999 Warius Wergeld 06/15/2019 12:30:12 132050754120000000
HQ 15,000 1 15,000 Warius Wergeld 06/15/2019 12:30:13 132050754130000000
HQ 30,000 1 30,000 Warius Wergeld 06/15/2019 12:30:16 132050754160000000
HQ 24,000 1 24,000 Menphen Muntor 06/17/2019 02:54:10 132052136500000000
7,500 1 7,500 Hack N'bot 06/17/2019 05:20:42 132052224420000000
7,500 1 7,500 Hack N'bot 06/17/2019 05:20:45 132052224450000000
7,777 1 7,777 Hack N'bot 06/17/2019 05:20:48 132052224480000000
9,000 1 9,000 Hack N'bot 06/17/2019 05:20:51 132052224510000000
9,211 1 9,211 Hack N'bot 06/17/2019 05:20:54 132052224540000000
9,800 1 9,800 Hack N'bot 06/17/2019 05:20:57 132052224570000000
9,000 1 9,000 Sleepy Anju 06/18/2019 02:54:47 132053000870000000
HQ 9,500 1 9,500 Yondell Goliathinn 06/19/2019 06:44:36 132054002760000000
HQ 10,000 1 10,000 Yondell Goliathinn 06/19/2019 06:44:45 132054002850000000
HQ 23,080 1 23,080 Subotai Rhun 06/20/2019 03:04:38 132054734780000000
HQ 23,080 1 23,080 Subotai Rhun 06/20/2019 03:04:40 132054734800000000
HQ 23,233 1 23,233 Subotai Rhun 06/20/2019 03:04:43 132054734830000000
HQ 24,200 1 24,200 Subotai Rhun 06/20/2019 03:04:45 132054734850000000
HQ 25,000 1 25,000 Kasmira Meloran 06/20/2019 03:57:02 132054766220000000
HQ 25,000 1 25,000 Kasmira Meloran 06/20/2019 03:57:06 132054766260000000
HQ 25,000 1 25,000 Kasmira Meloran 06/20/2019 03:57:09 132054766290000000
HQ 25,000 1 25,000 Kasmira Meloran 06/20/2019 03:57:14 132054766340000000
HQ 25,000 1 25,000 Kasmira Meloran 06/20/2019 03:57:18 132054766380000000
HQ 25,000 1 25,000 Kasmira Meloran 06/20/2019 03:57:23 132054766430000000
9,200 1 9,200 Big Boats 06/20/2019 12:27:13 132055072330000000
9,211 1 9,211 Big Boats 06/20/2019 12:35:35 132055077350000000
9,911 1 9,911 Big Boats 06/20/2019 12:35:38 132055077380000000
10,000 1 10,000 Big Boats 06/20/2019 12:35:41 132055077410000000
HQ 39,800 1 39,800 Wesk Silvrblud 06/20/2019 14:35:24 132055149240000000
HQ 39,800 1 39,800 Redbone's Lady 06/20/2019 22:31:31 132055434910000000
9,000 1 9,000 Ren Ki 06/20/2019 22:46:58 132055444180000000
HQ 39,800 1 39,800 Sinecra Sunshatter 06/22/2019 04:44:09 132056522490000000
HQ 39,800 1 39,800 Sinecra Sunshatter 06/22/2019 04:44:12 132056522520000000
8,500 1 8,500 Misdirection Overflow 06/22/2019 18:26:58 132057016180000000
8,650 1 8,650 Misdirection Overflow 06/22/2019 18:27:01 132057016210000000
8,700 1 8,700 Misdirection Overflow 06/22/2019 18:27:03 132057016230000000
9,211 1 9,211 Misdirection Overflow 06/22/2019 18:27:05 132057016250000000
9,800 1 9,800 Misdirection Overflow 06/22/2019 18:27:08 132057016280000000
10,000 1 10,000 Atlas Arklight 06/22/2019 21:58:03 132057142830000000
11,000 1 11,000 Atlas Arklight 06/22/2019 21:58:06 132057142860000000
HQ 39,800 1 39,800 Eli Jhungid 06/23/2019 01:29:26 132057269660000000
HQ 39,080 1 39,080 Decerius Farstrider 06/23/2019 11:42:50 132057637700000000
HQ 30,000 1 30,000 Geshtar Vandole 06/24/2019 08:03:07 132058369870000000
HQ 30,000 1 30,000 Geshtar Vandole 06/24/2019 08:03:10 132058369900000000
HQ 30,000 1 30,000 Geshtar Vandole 06/24/2019 08:04:01 132058370410000000
HQ 30,000 1 30,000 Geshtar Vandole 06/24/2019 08:04:04 132058370440000000
HQ 37,800 1 37,800 Zap Lionheart 06/24/2019 12:57:29 132058546490000000
HQ 30,233 1 30,233 Zap Lionheart 06/24/2019 12:57:31 132058546510000000
HQ 37,800 1 37,800 Zap Lionheart 06/24/2019 12:57:33 132058546530000000
HQ 38,000 1 38,000 Zap Lionheart 06/24/2019 13:00:07 132058548070000000
HQ 37,000 1 37,000 Nico Niii 06/27/2019 05:37:04 132060874240000000
HQ 37,000 1 37,000 Nico Niii 06/27/2019 05:37:07 132060874270000000
HQ 37,000 1 37,000 Nico Niii 06/27/2019 05:37:08 132060874280000000
HQ 37,000 1 37,000 Nico Niii 06/27/2019 05:37:11 132060874310000000
HQ 37,000 1 37,000 Nico Niii 06/27/2019 05:37:12 132060874320000000
HQ 37,000 1 37,000 Nico Niii 06/27/2019 05:37:19 132060874390000000
13,999 1 13,999 Ciris Dumspero 06/28/2019 17:45:19 132062175190000000
7,500 1 7,500 Himiko Sakimaru 06/29/2019 16:22:04 132062989240000000
5,000 1 5,000 Valien Ferox 06/30/2019 02:50:19 132063366190000000
4,000 1 4,000 Bob Dosumth'n 06/30/2019 15:28:41 132063821210000000
4,000 1 4,000 Averon Mossin 06/30/2019 18:50:25 132063942250000000
1,011 1 1,011 Aurious Azreal 07/03/2019 21:50:47 132066642470000000

Exodus Cross Server Data for Hallowed Chestnut Armillae on Primal

Behemoth 18,000 6 60,000 18,000 16,422 -16,989 20,000 246,331 15 6/17/19 12:19:44 AM
Excalibur 9,000 13 44,233 9,000 0 0 0 0 0 6/4/19 12:01:59 AM
Exodus 23,850 15 49,999 23,850 1,011 -22,839 1,011 1,011 1 7/7/19 9:30:44 PM
Famfrit 30,000 9 100,000 30,000 0 0 0 0 0 7/8/19 5:04:48 PM
Hyperion 6,000 24 30,000 6,000 6,657 -4,989 5,211 133,149 20 7/14/19 10:11:32 PM
Lamia 16,000 21 85,999 16,000 19,815 -14,989 16,999 158,520 8 6/29/19 9:03:32 AM
Leviathan 22,000 15 22,200 22,000 28,946 -20,989 70,000 463,137 16 7/17/19 2:55:18 AM
Ultros 39,999 12 39,999 0 19,975 -38,988 997 159,804 8 7/14/19 3:53:02 AM
HQ
i

Requests for Hallowed Chestnut Armillae

Click for Discord- Item Requests